Time;durP1;ratioP1;P1;durP2;ratioP2;P2;SDS_P1;SDS_P2;PMS_P1;PMS_P2;Temp;Humidity;BMP_temperature;BMP_pressure;BME280_temperature;BME280_humidity;BME280_pressure;Samples;Min_cycle;Max_cycle;Signal;HPM_P1;HPM_P2
2022/12/02 00:01:01;;;;;;;27.43;19.30;;;5.20;1.00;;;;;;5098148;28;20195;-81
2022/12/02 00:03:30;;;;;;;27.87;19.13;;;5.20;1.00;;;;;;5103677;28;20449;-81
2022/12/02 00:05:58;;;;;;;27.58;18.73;;;5.30;1.00;;;;;;5095140;28;20854;-82
2022/12/02 00:08:30;;;;;;;27.60;17.30;;;5.30;1.00;;;;;;5097025;28;20243;-81
2022/12/02 00:11:02;;;;;;;31.77;20.30;;;5.30;1.00;;;;;;5099214;28;20947;-81
2022/12/02 00:13:40;;;;;;;32.55;18.13;;;5.20;1.00;;;;;;5102411;28;20463;-82
2022/12/02 00:16:18;;;;;;;27.20;18.63;;;5.20;1.00;;;;;;5096396;28;20299;-81
2022/12/02 00:18:47;;;;;;;31.33;20.77;;;5.20;1.00;;;;;;5095443;28;20487;-80
2022/12/02 00:21:15;;;;;;;26.00;19.45;;;5.20;1.00;;;;;;5097568;28;20517;-79
2022/12/02 00:23:44;;;;;;;33.17;21.07;;;5.20;1.00;;;;;;5089891;28;20211;-80
2022/12/02 00:26:13;;;;;;;30.47;19.83;;;5.20;1.00;;;;;;5099134;28;20449;-79
2022/12/02 00:28:41;;;;;;;25.37;17.90;;;5.20;1.00;;;;;;5094840;28;20572;-81
2022/12/02 00:31:09;;;;;;;32.07;20.00;;;5.20;1.00;;;;;;5097608;28;20518;-80
2022/12/02 00:33:37;;;;;;;24.80;17.67;;;5.20;1.00;;;;;;5095485;28;20461;-80
2022/12/02 00:36:06;;;;;;;28.65;19.58;;;5.30;1.00;;;;;;5098464;28;20457;-82
2022/12/02 00:38:34;;;;;;;22.53;17.30;;;5.30;1.00;;;;;;5100251;28;20228;-80
2022/12/02 00:41:02;;;;;;;24.10;17.13;;;5.30;1.00;;;;;;5091633;28;20464;-81
2022/12/02 00:46:32;;;;;;;26.37;19.33;;;5.20;1.00;;;;;;5057887;28;20454;-81
2022/12/02 00:49:03;;;;;;;24.30;16.80;;;5.20;1.00;;;;;;5095658;28;20495;-81
2022/12/02 00:51:31;;;;;;;28.13;17.70;;;5.20;1.00;;;;;;5100832;28;20444;-81
2022/12/02 00:53:59;;;;;;;28.77;19.73;;;5.40;1.00;;;;;;5098864;28;20787;-81
2022/12/02 00:56:28;;;;;;;28.37;18.47;;;5.30;1.00;;;;;;5096329;28;20199;-82
2022/12/02 00:58:57;;;;;;;26.40;18.60;;;5.30;1.00;;;;;;5096907;28;20538;-81
2022/12/02 01:01:25;;;;;;;27.50;18.57;;;5.30;1.00;;;;;;5093720;28;20518;-81
2022/12/02 01:03:54;;;;;;;32.07;19.53;;;5.30;1.00;;;;;;5095818;28;20457;-81
2022/12/02 01:06:23;;;;;;;29.47;18.60;;;5.30;1.00;;;;;;5104990;27;20936;-81
2022/12/02 01:08:51;;;;;;;27.83;20.77;;;5.20;1.00;;;;;;5103811;28;20484;-82
2022/12/02 01:11:19;;;;;;;29.67;19.23;;;5.20;1.00;;;;;;5104235;28;20506;-81
2022/12/02 01:13:47;;;;;;;26.70;17.65;;;5.20;1.00;;;;;;5093094;28;20240;-81
2022/12/02 01:16:17;;;;;;;26.83;18.17;;;5.20;1.00;;;;;;5099404;27;20194;-81
2022/12/02 01:18:45;;;;;;;26.10;17.27;;;5.10;1.00;;;;;;5100443;28;20238;-81
2022/12/02 01:21:13;;;;;;;26.53;17.70;;;5.10;1.00;;;;;;5094312;28;20240;-82
2022/12/02 01:23:41;;;;;;;30.40;20.53;;;5.20;1.00;;;;;;5096838;28;20583;-81
2022/12/02 01:26:09;;;;;;;28.83;19.17;;;5.10;1.00;;;;;;5095237;28;20449;-81
2022/12/02 01:28:37;;;;;;;24.90;18.10;;;5.10;1.00;;;;;;5099604;28;20836;-81
2022/12/02 01:31:06;;;;;;;28.13;20.60;;;5.00;1.00;;;;;;5094420;28;20456;-82
2022/12/02 01:33:35;;;;;;;28.75;19.80;;;5.00;1.00;;;;;;5099932;28;20454;-80
2022/12/02 01:36:04;;;;;;;25.70;18.90;;;5.10;1.00;;;;;;5107045;27;20209;-81
2022/12/02 01:38:32;;;;;;;28.60;19.73;;;5.10;1.00;;;;;;5099271;27;20216;-80
2022/12/02 01:41:01;;;;;;;32.08;19.90;;;5.20;1.00;;;;;;5098703;27;20554;-79
2022/12/02 01:43:29;;;;;;;32.20;18.55;;;5.10;1.00;;;;;;5096506;28;20225;-81
2022/12/02 01:45:58;;;;;;;32.60;20.45;;;5.10;1.00;;;;;;5097084;28;20203;-79
2022/12/02 01:48:26;;;;;;;33.60;18.52;;;5.10;1.00;;;;;;5101653;28;20226;-82
2022/12/02 01:50:56;;;;;;;28.48;19.33;;;5.20;1.00;;;;;;5097229;27;20195;-81
2022/12/02 01:53:24;;;;;;;25.77;18.75;;;5.30;1.00;;;;;;5097793;28;20202;-80
2022/12/02 01:55:53;;;;;;;28.45;19.75;;;5.20;1.00;;;;;;5098785;28;20207;-81
2022/12/02 01:58:25;;;;;;;29.23;18.85;;;5.20;1.00;;;;;;5101439;27;20573;-80
2022/12/02 02:00:54;;;;;;;24.60;17.57;;;5.20;1.00;;;;;;5101890;27;20199;-81
2022/12/02 02:03:23;;;;;;;30.55;17.88;;;5.20;1.00;;;;;;5091274;28;20813;-81
2022/12/02 02:05:51;;;;;;;24.73;16.88;;;5.20;1.00;;;;;;5097979;28;20299;-81
2022/12/02 02:08:21;;;;;;;23.90;17.88;;;5.20;1.00;;;;;;5094969;28;20249;-79
2022/12/02 02:10:50;;;;;;;28.27;18.67;;;5.20;1.00;;;;;;5097379;27;20741;-80
2022/12/02 02:13:18;;;;;;;22.10;16.60;;;5.10;1.00;;;;;;5097933;27;20940;-80
2022/12/02 02:15:47;;;;;;;31.40;20.95;;;5.10;1.00;;;;;;5099549;28;20199;-80
2022/12/02 02:18:16;;;;;;;26.33;16.70;;;5.20;1.00;;;;;;5096694;28;20233;-81
2022/12/02 02:20:44;;;;;;;29.50;18.30;;;5.10;1.00;;;;;;5097430;27;20477;-80
2022/12/02 02:23:20;;;;;;;31.30;20.50;;;5.10;1.00;;;;;;5094473;27;20188;-79
2022/12/02 02:25:51;;;;;;;27.23;20.27;;;5.10;1.00;;;;;;5097544;28;20256;-80
2022/12/02 02:28:22;;;;;;;29.60;19.42;;;5.10;1.00;;;;;;5097810;27;20222;-80
2022/12/02 02:30:51;;;;;;;33.10;19.50;;;5.10;1.00;;;;;;5102251;27;20231;-80
2022/12/02 02:33:21;;;;;;;26.67;19.67;;;5.10;1.00;;;;;;5088346;28;20601;-79
2022/12/02 02:35:50;;;;;;;25.77;17.35;;;5.10;1.00;;;;;;5103917;27;20187;-80
2022/12/02 02:38:22;;;;;;;29.43;19.93;;;5.10;1.00;;;;;;5101095;28;20219;-80
2022/12/02 02:40:52;;;;;;;29.95;18.90;;;5.20;1.00;;;;;;5097158;27;20991;-81
2022/12/02 02:43:23;;;;;;;24.80;18.70;;;5.10;1.00;;;;;;5096077;28;20211;-81
2022/12/02 02:45:53;;;;;;;34.30;19.90;;;5.10;1.00;;;;;;5094419;28;20457;-81
2022/12/02 02:48:23;;;;;;;33.80;19.20;;;5.10;1.00;;;;;;5093175;28;20504;-80
2022/12/02 02:50:52;;;;;;;26.88;17.27;;;5.10;1.00;;;;;;5094611;27;20268;-80
2022/12/02 02:53:25;;;;;;;26.47;19.53;;;5.10;1.00;;;;;;5096925;28;20203;-81
2022/12/02 02:55:54;;;;;;;24.73;17.85;;;5.10;1.00;;;;;;5099312;27;20909;-79
2022/12/02 02:58:25;;;;;;;31.42;19.80;;;5.10;1.00;;;;;;5096305;28;20222;-80
2022/12/02 03:00:55;;;;;;;31.35;19.95;;;5.10;1.00;;;;;;5099467;28;20249;-79
2022/12/02 03:03:33;;;;;;;32.77;19.27;;;5.20;1.00;;;;;;5100324;28;20196;-80
2022/12/02 03:06:04;;;;;;;24.97;17.40;;;5.20;1.00;;;;;;5096810;28;20454;-79
2022/12/02 03:08:35;;;;;;;24.83;18.77;;;5.20;1.00;;;;;;5095804;28;20851;-81
2022/12/02 03:11:04;;;;;;;30.25;20.30;;;5.10;1.00;;;;;;5099720;27;20262;-79
2022/12/02 03:13:36;;;;;;;25.67;17.50;;;5.10;1.00;;;;;;5099124;28;20539;-80
2022/12/02 03:16:07;;;;;;;28.35;18.73;;;5.10;1.00;;;;;;5097761;28;21221;-80
2022/12/02 03:18:35;;;;;;;27.05;18.83;;;5.10;1.00;;;;;;5096367;28;20246;-80
2022/12/02 03:21:04;;;;;;;24.92;18.65;;;5.10;1.00;;;;;;5101020;27;20245;-81
2022/12/02 03:23:35;;;;;;;30.00;19.42;;;5.10;1.00;;;;;;5104031;28;20223;-80
2022/12/02 03:26:05;;;;;;;29.38;18.60;;;5.10;1.00;;;;;;5098668;28;20218;-80
2022/12/02 03:28:34;;;;;;;29.50;18.92;;;5.10;1.00;;;;;;5096079;28;20211;-81
2022/12/02 03:31:02;;;;;;;29.97;19.23;;;5.10;1.00;;;;;;5098997;28;20219;-81
2022/12/02 03:33:31;;;;;;;29.08;18.30;;;5.10;1.00;;;;;;5095889;28;20511;-80
2022/12/02 03:35:59;;;;;;;27.08;18.90;;;5.10;1.00;;;;;;5098312;28;20257;-79
2022/12/02 03:38:28;;;;;;;27.85;18.90;;;5.20;1.00;;;;;;5098474;27;20224;-81
2022/12/02 03:40:58;;;;;;;27.80;19.20;;;5.10;1.00;;;;;;5097824;28;20204;-79
2022/12/02 03:43:27;;;;;;;23.10;16.47;;;5.00;1.00;;;;;;5097368;28;20195;-82
2022/12/02 03:45:56;;;;;;;29.13;17.20;;;5.10;1.00;;;;;;5100286;27;20469;-80
2022/12/02 03:48:25;;;;;;;25.98;19.08;;;5.20;1.00;;;;;;5103737;28;20474;-81
2022/12/02 03:50:54;;;;;;;25.30;17.45;;;5.10;1.00;;;;;;5097060;28;20218;-79
2022/12/02 03:53:22;;;;;;;28.00;19.80;;;5.00;1.00;;;;;;5106476;28;20240;-79
2022/12/02 03:55:51;;;;;;;26.77;18.20;;;5.00;1.00;;;;;;5095130;28;20441;-79
2022/12/02 03:58:31;;;;;;;27.80;18.13;;;5.00;1.00;;;;;;5098442;28;20258;-79
2022/12/02 04:01:00;;;;;;;25.38;17.80;;;5.10;1.00;;;;;;5101357;28;20819;-79
2022/12/02 04:03:28;;;;;;;29.50;18.60;;;5.00;1.00;;;;;;5101413;28;20199;-80
2022/12/02 04:05:56;;;;;;;26.00;18.10;;;5.00;1.00;;;;;;5094729;28;20510;-80
2022/12/02 04:08:24;;;;;;;27.80;18.97;;;5.00;1.00;;;;;;5100702;28;20470;-79
2022/12/02 04:10:52;;;;;;;28.70;18.88;;;5.00;1.00;;;;;;5100156;27;20575;-80
2022/12/02 04:13:22;;;;;;;29.75;17.65;;;5.00;1.00;;;;;;5100274;28;20233;-80
2022/12/02 04:15:51;;;;;;;27.90;20.17;;;5.10;1.00;;;;;;5098666;28;20694;-80
2022/12/02 04:18:19;;;;;;;25.83;17.43;;;5.10;1.00;;;;;;5106254;28;20226;-81
2022/12/02 04:20:47;;;;;;;28.80;18.15;;;5.10;1.00;;;;;;5103372;28;20445;-82
2022/12/02 04:23:15;;;;;;;27.37;18.33;;;5.00;1.00;;;;;;5098457;28;20210;-81
2022/12/02 04:25:44;;;;;;;29.13;18.00;;;5.00;1.00;;;;;;5104092;27;20454;-81
2022/12/02 04:28:12;;;;;;;26.42;17.02;;;5.00;1.00;;;;;;5102564;28;20219;-80
2022/12/02 04:30:41;;;;;;;25.80;18.07;;;5.00;1.00;;;;;;5106856;28;20251;-81
2022/12/02 04:33:10;;;;;;;28.03;17.87;;;5.00;1.00;;;;;;5108089;27;20457;-81
2022/12/02 04:35:38;;;;;;;25.33;18.73;;;5.00;1.00;;;;;;5098765;27;20457;-81
2022/12/02 04:38:06;;;;;;;28.23;18.80;;;4.90;1.00;;;;;;5105467;28;20646;-80
2022/12/02 04:40:39;;;;;;;31.20;18.70;;;5.00;1.00;;;;;;5104079;27;20538;-80
2022/12/02 04:43:07;;;;;;;25.17;16.63;;;5.00;1.00;;;;;;5098825;27;20449;-80
2022/12/02 04:45:35;;;;;;;24.97;18.33;;;5.00;1.00;;;;;;5099153;28;20717;-81
2022/12/02 04:48:06;;;;;;;26.98;17.35;;;5.10;1.00;;;;;;5094080;28;20518;-80
2022/12/02 04:50:34;;;;;;;29.33;19.77;;;5.20;1.00;;;;;;5096483;28;20265;-79
2022/12/02 04:53:02;;;;;;;29.77;19.15;;;5.10;1.00;;;;;;5101131;27;20535;-80
2022/12/02 04:55:30;;;;;;;32.17;20.13;;;5.10;1.00;;;;;;5098092;27;20728;-78
2022/12/02 04:57:58;;;;;;;27.30;16.93;;;5.10;1.00;;;;;;5091850;28;20804;-79
2022/12/02 05:00:26;;;;;;;38.20;19.02;;;5.00;1.00;;;;;;5104606;27;20492;-79
2022/12/02 05:02:55;;;;;;;29.97;20.27;;;5.10;1.00;;;;;;5094610;27;20191;-78
2022/12/02 05:05:25;;;;;;;26.73;18.97;;;5.00;1.00;;;;;;5097720;27;20499;-81
2022/12/02 05:07:53;;;;;;;30.35;19.73;;;5.00;1.00;;;;;;5096436;28;20523;-80
2022/12/02 05:10:22;;;;;;;28.77;18.63;;;5.00;1.00;;;;;;5099510;28;20219;-79
2022/12/02 05:12:50;;;;;;;30.40;20.40;;;5.10;1.00;;;;;;5099880;28;20572;-81
2022/12/02 05:15:18;;;;;;;28.40;20.03;;;5.10;1.00;;;;;;5097675;27;20445;-79
2022/12/02 05:17:47;;;;;;;28.33;17.80;;;5.00;1.00;;;;;;5100028;27;20476;-79
2022/12/02 05:20:15;;;;;;;32.92;18.60;;;5.00;1.00;;;;;;5099696;27;20485;-79
2022/12/02 05:22:45;;;;;;;31.80;19.70;;;5.00;1.00;;;;;;5098933;27;20278;-78
2022/12/02 05:25:13;;;;;;;30.33;20.10;;;5.00;1.00;;;;;;5100982;27;20196;-80
2022/12/02 05:27:41;;;;;;;28.43;19.00;;;5.00;1.00;;;;;;5098096;28;20230;-81
2022/12/02 05:30:12;;;;;;;32.00;21.02;;;5.00;1.00;;;;;;5097793;27;20515;-81
2022/12/02 05:32:40;;;;;;;31.27;19.10;;;5.10;1.00;;;;;;5090713;28;20203;-81
2022/12/02 05:35:09;;;;;;;29.70;20.13;;;5.10;1.00;;;;;;5091747;27;20192;-76
2022/12/02 05:37:37;;;;;;;30.55;19.40;;;5.10;1.00;;;;;;5082730;28;20239;-78
2022/12/02 05:40:09;;;;;;;31.13;18.70;;;5.10;1.00;;;;;;5098555;28;20568;-78
2022/12/02 05:42:39;;;;;;;28.70;19.50;;;5.00;1.00;;;;;;5099847;27;20205;-77
2022/12/02 05:45:15;;;;;;;29.55;19.88;;;5.00;1.00;;;;;;5091164;27;20754;-78
2022/12/02 05:47:45;;;;;;;35.42;22.92;;;5.10;1.00;;;;;;5096141;28;20614;-79
2022/12/02 05:50:14;;;;;;;30.20;20.80;;;5.00;1.00;;;;;;5096090;28;20244;-79
2022/12/02 05:52:43;;;;;;;39.40;21.70;;;4.90;1.00;;;;;;5095295;27;20231;-78
2022/12/02 05:55:16;;;;;;;33.78;21.63;;;5.10;1.00;;;;;;5092575;28;20443;-79
2022/12/02 05:57:45;;;;;;;28.27;19.90;;;5.00;1.00;;;;;;5090788;28;20234;-78
2022/12/02 06:00:17;;;;;;;29.17;20.70;;;5.00;1.00;;;;;;5093754;28;20618;-79
2022/12/02 06:02:47;;;;;;;31.05;20.45;;;5.00;1.00;;;;;;5098030;27;20441;-78
2022/12/02 06:05:21;;;;;;;31.40;19.97;;;5.00;1.00;;;;;;5096457;28;20568;-78
2022/12/02 06:07:53;;;;;;;30.35;19.73;;;5.00;1.00;;;;;;5094366;28;20506;-79
2022/12/02 06:10:28;;;;;;;35.97;20.65;;;4.90;1.00;;;;;;5098073;28;20240;-79
2022/12/02 06:12:59;;;;;;;33.40;20.05;;;5.00;1.00;;;;;;5099269;28;20545;-78
2022/12/02 06:15:33;;;;;;;32.67;19.80;;;5.00;1.00;;;;;;5098156;28;20217;-78
2022/12/02 06:18:02;;;;;;;31.35;21.38;;;5.00;1.00;;;;;;5097129;28;20229;-80
2022/12/02 06:20:33;;;;;;;28.30;19.08;;;5.10;1.00;;;;;;5099624;28;20203;-78
2022/12/02 06:23:02;;;;;;;32.08;19.00;;;5.10;1.00;;;;;;5095261;28;20210;-80
2022/12/02 06:25:32;;;;;;;30.50;19.75;;;5.00;1.00;;;;;;5097120;27;20203;-79
2022/12/02 06:28:10;;;;;;;29.75;19.02;;;4.90;1.00;;;;;;5094655;28;20714;-79
2022/12/02 06:30:40;;;;;;;37.80;20.85;;;5.00;1.00;;;;;;5094664;28;20218;-80
2022/12/02 06:33:20;;;;;;;45.85;23.13;;;5.00;1.00;;;;;;5094944;28;20199;-79
2022/12/02 06:35:50;;;;;;;32.20;17.97;;;5.00;1.00;;;;;;5090780;28;20195;-79
2022/12/02 06:38:27;;;;;;;38.10;21.30;;;5.00;1.00;;;;;;5088571;27;20530;-79
2022/12/02 06:40:59;;;;;;;28.02;19.10;;;5.00;1.00;;;;;;5094007;28;20449;-78
2022/12/02 06:43:30;;;;;;;33.25;20.63;;;5.00;1.00;;;;;;5093635;28;20358;-80
2022/12/02 06:45:59;;;;;;;32.17;20.30;;;5.00;1.00;;;;;;5093838;28;20663;-79
2022/12/02 06:48:31;;;;;;;35.30;21.50;;;4.90;1.00;;;;;;5109650;27;20469;-81
2022/12/02 06:51:11;;;;;;;31.38;19.83;;;5.10;1.00;;;;;;5093992;28;20445;-78
2022/12/02 06:53:40;;;;;;;34.35;20.65;;;5.00;1.00;;;;;;5093769;28;20960;-81
2022/12/02 06:56:22;;;;;;;28.83;20.17;;;5.10;1.00;;;;;;5088686;28;20196;-80
2022/12/02 06:58:57;;;;;;;29.70;18.55;;;5.20;1.00;;;;;;5092866;27;20227;-81
2022/12/02 07:01:34;;;;;;;38.13;20.50;;;5.00;1.00;;;;;;5096838;27;20212;-80
2022/12/02 07:04:22;;;;;;;32.20;19.00;;;5.10;1.00;;;;;;5092567;28;20689;-81
2022/12/02 07:06:54;;;;;;;29.23;17.90;;;5.10;1.00;;;;;;5095874;28;20196;-81
2022/12/02 07:09:32;;;;;;;27.85;18.70;;;5.00;1.00;;;;;;5095461;27;20473;-80
2022/12/02 07:12:02;;;;;;;33.35;20.50;;;4.90;1.00;;;;;;5086590;28;20203;-80
2022/12/02 07:14:40;;;;;;;33.85;19.13;;;5.00;1.00;;;;;;5090711;28;20225;-80
2022/12/02 07:17:21;;;;;;;29.42;18.42;;;4.90;1.00;;;;;;5098792;28;20191;-80
2022/12/02 07:19:55;;;;;;;26.63;17.30;;;5.00;1.00;;;;;;5094191;28;20226;-81
2022/12/02 07:22:28;;;;;;;29.67;18.43;;;5.00;1.00;;;;;;5094448;28;20193;-80
2022/12/02 07:24:59;;;;;;;29.63;19.10;;;5.00;1.00;;;;;;5091223;28;20458;-82
2022/12/02 07:27:32;;;;;;;29.53;19.60;;;5.00;1.00;;;;;;5096752;28;20284;-79
2022/12/02 07:30:01;;;;;;;31.88;18.45;;;5.10;1.00;;;;;;5088575;28;20457;-80
2022/12/02 07:32:29;;;;;;;27.60;18.17;;;5.10;1.00;;;;;;5095955;28;20839;-80
2022/12/02 07:34:57;;;;;;;31.42;18.33;;;5.10;1.00;;;;;;5091585;28;20453;-78
2022/12/02 07:37:25;;;;;;;28.05;17.38;;;5.10;1.00;;;;;;5094161;28;20698;-80
2022/12/02 07:39:54;;;;;;;28.87;18.50;;;5.00;1.00;;;;;;5095194;27;20204;-79
2022/12/02 07:42:22;;;;;;;20.43;15.57;;;5.00;1.00;;;;;;5095570;28;20826;-79
2022/12/02 07:44:51;;;;;;;28.90;19.40;;;5.10;1.00;;;;;;5096878;28;20452;-79
2022/12/02 07:47:20;;;;;;;29.10;18.63;;;5.00;1.00;;;;;;5095765;28;20792;-79
2022/12/02 07:49:48;;;;;;;26.30;17.38;;;5.10;1.00;;;;;;5098957;28;20952;-80
2022/12/02 07:52:16;;;;;;;27.77;17.63;;;5.10;1.00;;;;;;5091973;28;20211;-80
2022/12/02 07:54:44;;;;;;;25.63;16.65;;;5.10;1.00;;;;;;5090678;28;20203;-79
2022/12/02 07:57:13;;;;;;;22.17;15.65;;;5.00;1.00;;;;;;5099281;28;20198;-80
2022/12/02 07:59:41;;;;;;;26.05;17.55;;;5.00;1.00;;;;;;5094668;28;20198;-78
2022/12/02 08:02:10;;;;;;;30.45;19.25;;;5.00;1.00;;;;;;5098269;27;20211;-79
2022/12/02 08:04:39;;;;;;;30.08;18.33;;;5.00;1.00;;;;;;5097465;28;20286;-80
2022/12/02 08:07:07;;;;;;;34.70;19.80;;;5.10;1.00;;;;;;5097810;28;20426;-79
2022/12/02 08:09:35;;;;;;;28.52;21.40;;;5.00;1.00;;;;;;5099647;27;20191;-79
2022/12/02 08:12:04;;;;;;;34.58;20.73;;;5.00;1.00;;;;;;5096643;28;20219;-78
2022/12/02 08:14:32;;;;;;;34.33;19.75;;;5.10;1.00;;;;;;5096572;27;20199;-79
2022/12/02 08:17:00;;;;;;;33.55;20.60;;;5.10;1.00;;;;;;5105387;27;20199;-79
2022/12/02 08:19:30;;;;;;;32.42;21.33;;;5.00;1.00;;;;;;5100096;28;20215;-79
2022/12/02 08:21:58;;;;;;;32.45;20.42;;;5.10;1.00;;;;;;5099575;28;20209;-80
2022/12/02 08:24:26;;;;;;;30.63;20.50;;;5.10;1.00;;;;;;5095975;28;20214;-79
2022/12/02 08:26:55;;;;;;;33.88;19.52;;;5.10;1.00;;;;;;5097801;28;20667;-79
2022/12/02 08:29:23;;;;;;;37.40;22.70;;;5.10;1.00;;;;;;5101870;27;21675;-79
2022/12/02 08:31:51;;;;;;;35.23;19.70;;;5.20;1.00;;;;;;5104756;28;20258;-79
2022/12/02 08:34:19;;;;;;;32.17;19.65;;;5.30;1.00;;;;;;5094404;28;20453;-79
2022/12/02 08:36:49;;;;;;;38.72;21.30;;;5.30;1.00;;;;;;5103144;28;20199;-78
2022/12/02 08:39:17;;;;;;;32.20;20.57;;;5.10;1.00;;;;;;5103534;28;20244;-79
2022/12/02 08:41:46;;;;;;;37.47;23.13;;;5.20;1.00;;;;;;5101254;28;20461;-80
2022/12/02 08:44:14;;;;;;;38.97;21.13;;;5.10;1.00;;;;;;5099900;28;20272;-78
2022/12/02 08:46:42;;;;;;;43.15;22.25;;;5.20;1.00;;;;;;5096125;28;20589;-80
2022/12/02 08:49:11;;;;;;;37.15;21.35;;;5.30;1.00;;;;;;5097197;28;20222;-79
2022/12/02 08:51:39;;;;;;;38.07;20.53;;;5.20;1.00;;;;;;5106866;27;20753;-79
2022/12/02 08:54:09;;;;;;;33.92;20.63;;;5.20;1.00;;;;;;5095754;28;20477;-79
2022/12/02 08:56:37;;;;;;;32.58;19.55;;;5.20;1.00;;;;;;5100097;28;20195;-80
2022/12/02 08:59:05;;;;;;;39.13;20.33;;;5.20;1.00;;;;;;5093105;28;20228;-79
2022/12/02 09:01:34;;;;;;;29.30;19.77;;;5.20;1.00;;;;;;5101934;28;20649;-81
2022/12/02 09:04:04;;;;;;;30.50;20.50;;;5.20;1.00;;;;;;5095822;28;20248;-80
2022/12/02 09:06:32;;;;;;;30.55;21.08;;;5.20;1.00;;;;;;5097691;28;20452;-80
2022/12/02 09:09:05;;;;;;;29.40;18.08;;;5.20;1.00;;;;;;5101222;28;20269;-80
2022/12/02 09:11:34;;;;;;;33.45;19.00;;;5.20;1.00;;;;;;5100789;28;20774;-79
2022/12/02 09:14:03;;;;;;;28.02;19.33;;;5.20;1.00;;;;;;5093697;28;20673;-79
2022/12/02 09:16:31;;;;;;;28.98;19.17;;;5.20;1.00;;;;;;5089741;27;20210;-79
2022/12/02 09:18:59;;;;;;;31.67;17.95;;;5.30;1.00;;;;;;5098742;28;20227;-79
2022/12/02 09:21:27;;;;;;;28.77;18.90;;;5.20;1.00;;;;;;5097389;28;20199;-80
2022/12/02 09:23:55;;;;;;;31.95;18.55;;;5.20;1.00;;;;;;5100306;28;20235;-80
2022/12/02 09:26:24;;;;;;;35.88;19.48;;;5.10;1.00;;;;;;5101131;28;20202;-79
2022/12/02 09:28:54;;;;;;;33.53;18.65;;;5.10;1.00;;;;;;5093102;28;20251;-80
2022/12/02 09:31:22;;;;;;;26.58;17.23;;;5.10;1.00;;;;;;5094871;28;20564;-79
2022/12/02 09:33:50;;;;;;;25.03;17.50;;;5.30;1.00;;;;;;5091869;28;20211;-80
2022/12/02 09:36:18;;;;;;;31.30;19.90;;;5.40;1.00;;;;;;5096306;28;20453;-80
2022/12/02 09:38:47;;;;;;;27.00;17.27;;;5.30;1.00;;;;;;5099326;28;20473;-79
2022/12/02 09:41:15;;;;;;;31.47;18.93;;;5.20;1.00;;;;;;5094826;28;20475;-80
2022/12/02 09:43:43;;;;;;;23.63;15.80;;;5.30;1.00;;;;;;5097339;28;21261;-81
2022/12/02 09:46:13;;;;;;;28.77;20.30;;;5.30;1.00;;;;;;5096790;28;20456;-80
2022/12/02 09:48:46;;;;;;;26.03;17.40;;;5.30;1.00;;;;;;5096848;28;20477;-79
2022/12/02 09:51:14;;;;;;;26.60;17.13;;;5.30;1.00;;;;;;5098315;28;21339;-80
2022/12/02 09:53:43;;;;;;;28.52;16.50;;;5.40;1.00;;;;;;5090836;28;20308;-80
2022/12/02 09:56:16;;;;;;;35.95;20.77;;;5.30;1.00;;;;;;5090087;28;20297;-79
2022/12/02 09:58:44;;;;;;;35.72;23.40;;;5.30;1.00;;;;;;5094232;28;20287;-79
2022/12/02 10:01:15;;;;;;;40.90;24.87;;;5.40;1.00;;;;;;5091716;27;20204;-79
2022/12/02 10:03:45;;;;;;;31.65;19.20;;;5.30;1.00;;;;;;5090194;27;20487;-79
2022/12/02 10:06:18;;;;;;;32.07;18.53;;;5.30;1.00;;;;;;5089427;28;20573;-80
2022/12/02 10:08:47;;;;;;;26.67;15.23;;;5.40;1.00;;;;;;5088966;27;20472;-81
2022/12/02 10:11:22;;;;;;;21.83;14.43;;;5.30;1.00;;;;;;5087680;27;20209;-80
2022/12/02 10:13:51;;;;;;;23.42;14.60;;;5.30;1.00;;;;;;5087801;28;20471;-80
2022/12/02 10:16:20;;;;;;;17.58;13.55;;;5.50;1.00;;;;;;5097732;28;20704;-80
2022/12/02 10:18:49;;;;;;;21.65;15.75;;;5.40;1.00;;;;;;5092536;27;20302;-78
2022/12/02 10:21:18;;;;;;;26.58;15.90;;;5.40;1.00;;;;;;5090298;27;20295;-80
2022/12/02 10:23:55;;;;;;;17.17;13.27;;;5.50;1.00;;;;;;5088096;28;20208;-80
2022/12/02 10:26:25;;;;;;;17.30;14.20;;;5.50;1.00;;;;;;5090797;27;20200;-79
2022/12/02 10:29:01;;;;;;;19.63;15.43;;;5.60;1.00;;;;;;5088851;28;20362;-80
2022/12/02 10:31:30;;;;;;;23.50;15.88;;;5.50;1.00;;;;;;5088086;27;20464;-80
2022/12/02 10:34:01;;;;;;;19.67;14.17;;;5.50;1.00;;;;;;5090752;27;20314;-79
2022/12/02 10:36:31;;;;;;;22.53;14.60;;;5.50;1.00;;;;;;5092920;28;20468;-80
2022/12/02 10:39:21;;;;;;;19.58;12.57;;;5.40;1.00;;;;;;5088323;27;20462;-80
2022/12/02 10:41:50;;;;;;;19.30;13.23;;;5.50;1.00;;;;;;5098341;28;20206;-79
2022/12/02 10:44:21;;;;;;;16.10;13.25;;;5.60;1.00;;;;;;5098905;28;20449;-80
2022/12/02 10:46:50;;;;;;;20.27;14.95;;;5.40;1.00;;;;;;5098655;28;20204;-79
2022/12/02 10:49:29;;;;;;;19.70;14.50;;;5.30;1.00;;;;;;5099088;28;20223;-80
2022/12/02 10:52:02;;;;;;;16.33;12.90;;;5.50;1.00;;;;;;5095176;27;20445;-80
2022/12/02 10:54:33;;;;;;;15.83;12.50;;;5.40;1.00;;;;;;5086890;28;20531;-79
2022/12/02 10:57:15;;;;;;;19.80;13.43;;;5.30;1.00;;;;;;5091845;28;20514;-79
2022/12/02 10:59:43;;;;;;;14.30;11.43;;;5.30;1.00;;;;;;5088059;28;20465;-80
2022/12/02 11:02:23;;;;;;;16.33;11.90;;;5.30;1.00;;;;;;5090997;28;20460;-82
2022/12/02 11:04:52;;;;;;;15.97;12.20;;;5.30;1.00;;;;;;5087536;28;20460;-80
2022/12/02 11:07:25;;;;;;;21.30;15.20;;;5.30;1.00;;;;;;5091104;27;20466;-80
2022/12/02 11:09:55;;;;;;;15.17;11.70;;;5.40;1.00;;;;;;5086536;28;20462;-79
2022/12/02 11:12:36;;;;;;;18.03;11.47;;;5.30;1.00;;;;;;5089920;28;20458;-80
2022/12/02 11:15:21;;;;;;;20.63;14.00;;;5.30;1.00;;;;;;5090170;28;20486;-80
2022/12/02 11:17:52;;;;;;;12.80;11.17;;;5.30;1.00;;;;;;5086346;28;20495;-79
2022/12/02 11:20:40;;;;;;;13.63;10.23;;;5.30;1.00;;;;;;5091385;28;20456;-80
2022/12/02 11:23:23;;;;;;;14.27;9.87;;;5.40;1.00;;;;;;5093167;28;20494;-80
2022/12/02 11:26:10;;;;;;;14.17;11.03;;;5.40;1.00;;;;;;5094537;28;20459;-79
2022/12/02 11:29:08;;;;;;;17.47;12.10;;;5.40;1.00;;;;;;5088495;28;20478;-80
2022/12/02 11:31:39;;;;;;;13.33;11.60;;;5.30;1.00;;;;;;5090895;28;20456;-80
2022/12/02 11:34:41;;;;;;;15.67;10.43;;;5.40;1.00;;;;;;5086991;28;20984;-79
2022/12/02 11:38:10;;;;;;;12.67;10.00;;;5.40;1.00;;;;;;5090091;28;20485;-79
2022/12/02 11:41:00;;;;;;;12.43;9.90;;;5.30;1.00;;;;;;5094124;28;20537;-79
2022/12/02 11:44:16;;;;;;;12.60;10.37;;;5.30;1.00;;;;;;5098919;28;21053;-79
2022/12/02 11:46:47;;;;;;;11.10;9.57;;;5.30;1.00;;;;;;5052918;28;20476;-79
2022/12/02 11:49:35;;;;;;;10.73;8.88;;;5.20;1.00;;;;;;5084239;28;20472;-80
2022/12/02 11:52:23;;;;;;;10.87;9.30;;;5.20;1.00;;;;;;5093516;28;20192;-79
2022/12/02 11:55:11;;;;;;;16.70;10.60;;;5.20;1.00;;;;;;5088476;28;20509;-80
2022/12/02 11:57:47;;;;;;;11.00;8.60;;;5.30;1.00;;;;;;5093124;28;20488;-79
2022/12/02 12:00:28;;;;;;;10.13;9.20;;;5.40;1.00;;;;;;5099979;28;20513;-80
2022/12/02 12:03:11;;;;;;;9.43;7.60;;;5.30;1.00;;;;;;5095883;28;20226;-79
2022/12/02 12:05:39;;;;;;;10.47;8.27;;;5.30;1.00;;;;;;5098218;28;20449;-79
2022/12/02 12:08:09;;;;;;;10.03;8.10;;;5.30;1.00;;;;;;5090650;28;20559;-81
2022/12/02 12:10:39;;;;;;;11.03;7.47;;;5.40;1.00;;;;;;5095726;28;20449;-80
2022/12/02 12:13:29;;;;;;;11.47;10.20;;;5.30;1.00;;;;;;5099786;28;20444;-80
2022/12/02 12:16:04;;;;;;;9.00;7.50;;;5.40;1.00;;;;;;5090822;28;20442;-80
2022/12/02 12:18:42;;;;;;;9.23;7.97;;;5.40;1.00;;;;;;5094732;28;21163;-80
2022/12/02 12:21:11;;;;;;;14.23;8.77;;;5.30;1.00;;;;;;5095417;28;20244;-80
2022/12/02 12:23:43;;;;;;;11.10;8.00;;;5.30;1.00;;;;;;5096510;28;20198;-80
2022/12/02 12:26:33;;;;;;;10.40;7.90;;;5.30;1.00;;;;;;5101269;28;20468;-78
2022/12/02 12:29:03;;;;;;;9.80;8.80;;;5.30;1.00;;;;;;5101748;28;20475;-79
2022/12/02 12:31:31;;;;;;;12.90;10.50;;;5.30;1.00;;;;;;5098034;28;20453;-79
2022/12/02 12:34:06;;;;;;;11.70;9.20;;;5.50;1.00;;;;;;5094760;28;20313;-80
2022/12/02 12:36:34;;;;;;;9.02;8.13;;;5.40;1.00;;;;;;5090943;28;20460;-79
2022/12/02 12:39:06;;;;;;;9.07;7.77;;;5.40;1.00;;;;;;5091727;28;20223;-79
2022/12/02 12:41:34;;;;;;;9.17;8.10;;;5.40;1.00;;;;;;5090359;28;20957;-79
2022/12/02 12:44:22;;;;;;;7.47;6.65;;;5.30;1.00;;;;;;5093879;28;20797;-80
2022/12/02 12:46:59;;;;;;;8.00;6.83;;;5.50;1.00;;;;;;5092740;28;20737;-80
2022/12/02 12:49:27;;;;;;;8.00;7.20;;;5.40;1.00;;;;;;5097835;28;20473;-79
2022/12/02 12:51:56;;;;;;;7.83;7.23;;;5.30;1.00;;;;;;5102355;28;20562;-78
2022/12/02 12:54:26;;;;;;;9.10;7.72;;;5.30;1.00;;;;;;5101961;28;20477;-79
2022/12/02 12:56:54;;;;;;;8.80;7.97;;;5.30;1.00;;;;;;5103526;27;20640;-79
2022/12/02 12:59:22;;;;;;;7.95;7.15;;;5.40;1.00;;;;;;5101005;28;20472;-78
2022/12/02 13:01:51;;;;;;;8.50;7.63;;;5.40;99.90;;;;;;5101707;28;20207;-79
2022/12/02 13:04:19;;;;;;;8.57;7.77;;;5.30;1.00;;;;;;5090944;28;20663;-81
2022/12/02 13:06:48;;;;;;;9.07;7.32;;;5.30;1.00;;;;;;5099856;28;20432;-79
2022/12/02 13:09:16;;;;;;;8.20;7.50;;;5.20;1.00;;;;;;5096372;27;20225;-79
2022/12/02 13:11:46;;;;;;;8.40;6.90;;;5.30;1.00;;;;;;5106964;27;20253;-78